Albion, Idaho
Current Conditions -  °F | °C
As of 1:53 AM on Wednesday 22 Oct 2014 (Local Time) from KBYI Reporting Station
Clear Clear  
Wind Chill: 32°   Ceiling: Unl
Heat Index: 36°   Visibility: 10mi
Dew Point: 30°   Wind: 5mph
Humidity: 79%   Direction: 230°SW
Pressure: 30.1"   Gusts: NA
Location:  42.41°N, 113.58°W
Report Text: KBYI 220753Z AUTO 23004KT 10SM CLR 02/M01 A3010 RMK AO2 SLP190 T00221011
Loading
Personal Weather Stations






























Interactive Weather Map
Tropical Storm Tracking
New forecast layout! Learn more

10-Day Weather Forecast

Advertisements
Track Severe Weather on mobile